Amesville, Ohio
Current Conditions -  °F | °C
As of 1:35 AM on Wednesday 26 Nov 2014 (Local Time) from KUNI Reporting Station
Clear Clear  
Wind Chill: -2°   Ceiling: Unl
Heat Index: -2°   Visibility: 10mi
Dew Point: -3°   Wind: 0mph
Humidity: 89%   Direction: NA
Pressure: 30.15"   Gusts: NA
Location:  39.4°N, 81.96°W
Report Text: KUNI 260635Z AUTO 00000KT 10SM CLR M02/M03 A3015 RMK AO2 T10171033
Loading
Personal Weather Stations






























Interactive Weather Map New forecast layout! Learn more

10-Day Weather Forecast

Advertisements
Track Severe Weather on mobile